sensor_id;sensor_type;location;lat;lon;timestamp;P1;durP1;ratioP1;P2;durP2;ratioP2
25359;SDS011;13311;51.386;0.016;2024-01-30T00:01:21;29.05;;;10.98;;
25359;SDS011;13311;51.386;0.016;2024-01-30T00:06:22;29.85;;;11.38;;
25359;SDS011;13311;51.386;0.016;2024-01-30T00:11:23;21.33;;;10.35;;
25359;SDS011;13311;51.386;0.016;2024-01-30T00:16:25;18.70;;;9.98;;
25359;SDS011;13311;51.386;0.016;2024-01-30T00:21:26;42.75;;;10.68;;
25359;SDS011;13311;51.386;0.016;2024-01-30T00:26:27;22.85;;;8.77;;
25359;SDS011;13311;51.386;0.016;2024-01-30T00:31:28;16.00;;;7.95;;
25359;SDS011;13311;51.386;0.016;2024-01-30T00:36:29;18.17;;;8.88;;
25359;SDS011;13311;51.386;0.016;2024-01-30T00:41:30;17.08;;;7.57;;
25359;SDS011;13311;51.386;0.016;2024-01-30T00:46:31;15.07;;;6.78;;
25359;SDS011;13311;51.386;0.016;2024-01-30T00:51:31;19.50;;;7.28;;
25359;SDS011;13311;51.386;0.016;2024-01-30T00:56:32;12.88;;;6.30;;
25359;SDS011;13311;51.386;0.016;2024-01-30T01:01:33;14.10;;;5.25;;
25359;SDS011;13311;51.386;0.016;2024-01-30T01:06:34;13.30;;;5.50;;
25359;SDS011;13311;51.386;0.016;2024-01-30T01:11:34;9.98;;;4.95;;
25359;SDS011;13311;51.386;0.016;2024-01-30T01:16:35;10.30;;;3.75;;
25359;SDS011;13311;51.386;0.016;2024-01-30T01:21:38;8.52;;;3.13;;
25359;SDS011;13311;51.386;0.016;2024-01-30T01:26:39;9.77;;;3.63;;
25359;SDS011;13311;51.386;0.016;2024-01-30T01:31:40;9.93;;;3.65;;
25359;SDS011;13311;51.386;0.016;2024-01-30T01:36:44;11.77;;;3.22;;
25359;SDS011;13311;51.386;0.016;2024-01-30T01:41:44;8.90;;;3.08;;
25359;SDS011;13311;51.386;0.016;2024-01-30T01:46:45;3.80;;;1.50;;
25359;SDS011;13311;51.386;0.016;2024-01-30T01:51:46;4.28;;;1.20;;
25359;SDS011;13311;51.386;0.016;2024-01-30T01:56:48;6.25;;;1.50;;
25359;SDS011;13311;51.386;0.016;2024-01-30T02:01:49;4.68;;;1.40;;
25359;SDS011;13311;51.386;0.016;2024-01-30T02:06:52;7.75;;;1.67;;
25359;SDS011;13311;51.386;0.016;2024-01-30T02:11:52;6.65;;;1.67;;
25359;SDS011;13311;51.386;0.016;2024-01-30T02:16:54;6.82;;;1.98;;
25359;SDS011;13311;51.386;0.016;2024-01-30T02:21:55;11.30;;;2.00;;
25359;SDS011;13311;51.386;0.016;2024-01-30T02:26:56;13.23;;;2.00;;
25359;SDS011;13311;51.386;0.016;2024-01-30T02:31:58;5.88;;;2.03;;
25359;SDS011;13311;51.386;0.016;2024-01-30T02:36:59;6.00;;;1.33;;
25359;SDS011;13311;51.386;0.016;2024-01-30T02:41:59;6.97;;;2.17;;
25359;SDS011;13311;51.386;0.016;2024-01-30T02:47:00;6.07;;;1.75;;
25359;SDS011;13311;51.386;0.016;2024-01-30T02:52:01;6.63;;;1.27;;
25359;SDS011;13311;51.386;0.016;2024-01-30T02:57:02;3.35;;;0.95;;
25359;SDS011;13311;51.386;0.016;2024-01-30T03:02:03;6.35;;;1.45;;
25359;SDS011;13311;51.386;0.016;2024-01-30T03:07:04;8.02;;;1.65;;
25359;SDS011;13311;51.386;0.016;2024-01-30T03:12:04;5.63;;;1.65;;
25359;SDS011;13311;51.386;0.016;2024-01-30T03:17:06;9.23;;;1.75;;
25359;SDS011;13311;51.386;0.016;2024-01-30T03:22:06;5.72;;;1.52;;
25359;SDS011;13311;51.386;0.016;2024-01-30T03:27:08;6.15;;;1.30;;
25359;SDS011;13311;51.386;0.016;2024-01-30T03:32:09;7.55;;;2.22;;
25359;SDS011;13311;51.386;0.016;2024-01-30T03:37:09;8.05;;;1.70;;
25359;SDS011;13311;51.386;0.016;2024-01-30T03:42:10;6.88;;;1.70;;
25359;SDS011;13311;51.386;0.016;2024-01-30T03:47:11;7.18;;;1.67;;
25359;SDS011;13311;51.386;0.016;2024-01-30T03:52:12;4.80;;;1.33;;
25359;SDS011;13311;51.386;0.016;2024-01-30T03:57:13;10.20;;;2.30;;
25359;SDS011;13311;51.386;0.016;2024-01-30T04:02:13;8.90;;;2.08;;
25359;SDS011;13311;51.386;0.016;2024-01-30T04:07:14;6.82;;;0.90;;
25359;SDS011;13311;51.386;0.016;2024-01-30T04:12:15;12.27;;;1.23;;
25359;SDS011;13311;51.386;0.016;2024-01-30T04:17:16;3.28;;;0.77;;
25359;SDS011;13311;51.386;0.016;2024-01-30T04:22:17;1.73;;;0.57;;
25359;SDS011;13311;51.386;0.016;2024-01-30T04:27:18;1.50;;;0.65;;
25359;SDS011;13311;51.386;0.016;2024-01-30T04:32:18;1.42;;;0.52;;
25359;SDS011;13311;51.386;0.016;2024-01-30T04:37:19;1.73;;;0.55;;
25359;SDS011;13311;51.386;0.016;2024-01-30T04:42:20;2.10;;;0.60;;
25359;SDS011;13311;51.386;0.016;2024-01-30T04:47:21;4.10;;;0.80;;
25359;SDS011;13311;51.386;0.016;2024-01-30T04:52:22;4.78;;;1.30;;
25359;SDS011;13311;51.386;0.016;2024-01-30T04:57:22;3.97;;;0.88;;
25359;SDS011;13311;51.386;0.016;2024-01-30T05:02:23;4.07;;;0.95;;
25359;SDS011;13311;51.386;0.016;2024-01-30T05:07:24;3.60;;;0.80;;
25359;SDS011;13311;51.386;0.016;2024-01-30T05:12:25;4.28;;;0.90;;
25359;SDS011;13311;51.386;0.016;2024-01-30T05:17:27;4.18;;;1.27;;
25359;SDS011;13311;51.386;0.016;2024-01-30T05:22:28;4.82;;;0.88;;
25359;SDS011;13311;51.386;0.016;2024-01-30T05:27:29;2.63;;;0.80;;
25359;SDS011;13311;51.386;0.016;2024-01-30T05:32:29;2.50;;;1.00;;
25359;SDS011;13311;51.386;0.016;2024-01-30T05:37:30;3.20;;;1.05;;
25359;SDS011;13311;51.386;0.016;2024-01-30T05:42:31;2.10;;;0.73;;
25359;SDS011;13311;51.386;0.016;2024-01-30T05:47:32;1.42;;;1.13;;
25359;SDS011;13311;51.386;0.016;2024-01-30T05:52:32;0.93;;;0.50;;
25359;SDS011;13311;51.386;0.016;2024-01-30T05:57:33;0.40;;;0.35;;
25359;SDS011;13311;51.386;0.016;2024-01-30T06:02:34;1.35;;;0.40;;
25359;SDS011;13311;51.386;0.016;2024-01-30T06:07:34;2.55;;;0.63;;
25359;SDS011;13311;51.386;0.016;2024-01-30T06:12:35;0.45;;;0.30;;
25359;SDS011;13311;51.386;0.016;2024-01-30T06:17:36;0.73;;;0.20;;
25359;SDS011;13311;51.386;0.016;2024-01-30T06:22:37;1.27;;;0.45;;
25359;SDS011;13311;51.386;0.016;2024-01-30T06:27:37;0.93;;;0.40;;
25359;SDS011;13311;51.386;0.016;2024-01-30T06:32:38;1.63;;;0.80;;
25359;SDS011;13311;51.386;0.016;2024-01-30T06:37:39;1.83;;;1.00;;
25359;SDS011;13311;51.386;0.016;2024-01-30T06:42:40;1.60;;;0.85;;
25359;SDS011;13311;51.386;0.016;2024-01-30T06:47:40;2.90;;;1.55;;
25359;SDS011;13311;51.386;0.016;2024-01-30T06:52:41;5.45;;;2.15;;
25359;SDS011;13311;51.386;0.016;2024-01-30T06:57:42;2.85;;;1.35;;
25359;SDS011;13311;51.386;0.016;2024-01-30T07:02:43;4.13;;;2.03;;
25359;SDS011;13311;51.386;0.016;2024-01-30T07:07:43;3.03;;;1.92;;
25359;SDS011;13311;51.386;0.016;2024-01-30T07:12:44;3.97;;;2.00;;
25359;SDS011;13311;51.386;0.016;2024-01-30T07:17:45;3.08;;;2.30;;
25359;SDS011;13311;51.386;0.016;2024-01-30T07:22:46;2.55;;;2.08;;
25359;SDS011;13311;51.386;0.016;2024-01-30T07:27:47;5.15;;;2.63;;
25359;SDS011;13311;51.386;0.016;2024-01-30T07:32:48;4.00;;;2.38;;
25359;SDS011;13311;51.386;0.016;2024-01-30T07:37:48;3.58;;;2.30;;
25359;SDS011;13311;51.386;0.016;2024-01-30T07:42:49;3.63;;;2.67;;
25359;SDS011;13311;51.386;0.016;2024-01-30T07:47:50;4.60;;;2.40;;
25359;SDS011;13311;51.386;0.016;2024-01-30T07:52:51;3.28;;;1.98;;
25359;SDS011;13311;51.386;0.016;2024-01-30T07:57:55;6.50;;;1.90;;
25359;SDS011;13311;51.386;0.016;2024-01-30T08:02:55;3.63;;;2.33;;
25359;SDS011;13311;51.386;0.016;2024-01-30T08:07:56;3.15;;;2.22;;
25359;SDS011;13311;51.386;0.016;2024-01-30T08:12:57;3.05;;;1.83;;
25359;SDS011;13311;51.386;0.016;2024-01-30T08:17:58;2.33;;;1.67;;
25359;SDS011;13311;51.386;0.016;2024-01-30T08:22:58;2.90;;;1.60;;
25359;SDS011;13311;51.386;0.016;2024-01-30T08:28:00;2.80;;;1.10;;
25359;SDS011;13311;51.386;0.016;2024-01-30T08:33:01;4.30;;;1.55;;
25359;SDS011;13311;51.386;0.016;2024-01-30T08:38:02;1.70;;;1.05;;
25359;SDS011;13311;51.386;0.016;2024-01-30T08:43:03;2.00;;;1.08;;
25359;SDS011;13311;51.386;0.016;2024-01-30T08:48:04;2.97;;;0.77;;
25359;SDS011;13311;51.386;0.016;2024-01-30T08:53:05;1.42;;;0.60;;
25359;SDS011;13311;51.386;0.016;2024-01-30T08:58:07;1.65;;;0.60;;
25359;SDS011;13311;51.386;0.016;2024-01-30T09:03:07;1.17;;;0.70;;
25359;SDS011;13311;51.386;0.016;2024-01-30T09:08:09;1.80;;;0.35;;
25359;SDS011;13311;51.386;0.016;2024-01-30T09:13:10;1.98;;;0.60;;
25359;SDS011;13311;51.386;0.016;2024-01-30T09:18:11;1.10;;;0.82;;
25359;SDS011;13311;51.386;0.016;2024-01-30T09:23:11;1.88;;;0.60;;
25359;SDS011;13311;51.386;0.016;2024-01-30T09:28:12;0.90;;;0.30;;
25359;SDS011;13311;51.386;0.016;2024-01-30T09:33:13;0.80;;;0.50;;
25359;SDS011;13311;51.386;0.016;2024-01-30T09:38:14;2.03;;;0.55;;
25359;SDS011;13311;51.386;0.016;2024-01-30T09:43:15;0.88;;;0.50;;
25359;SDS011;13311;51.386;0.016;2024-01-30T09:48:19;1.27;;;0.50;;
25359;SDS011;13311;51.386;0.016;2024-01-30T09:53:20;1.42;;;0.30;;
25359;SDS011;13311;51.386;0.016;2024-01-30T09:58:21;4.35;;;0.73;;
25359;SDS011;13311;51.386;0.016;2024-01-30T10:03:22;2.83;;;0.60;;
25359;SDS011;13311;51.386;0.016;2024-01-30T10:08:23;3.13;;;0.82;;
25359;SDS011;13311;51.386;0.016;2024-01-30T10:13:24;4.13;;;0.50;;
25359;SDS011;13311;51.386;0.016;2024-01-30T10:18:25;3.25;;;0.30;;
25359;SDS011;13311;51.386;0.016;2024-01-30T10:23:26;0.80;;;0.40;;
25359;SDS011;13311;51.386;0.016;2024-01-30T10:28:27;1.85;;;0.50;;
25359;SDS011;13311;51.386;0.016;2024-01-30T10:33:30;1.30;;;0.40;;
25359;SDS011;13311;51.386;0.016;2024-01-30T10:38:32;3.15;;;0.77;;
25359;SDS011;13311;51.386;0.016;2024-01-30T10:43:36;2.15;;;0.45;;
25359;SDS011;13311;51.386;0.016;2024-01-30T10:48:42;1.20;;;0.50;;
25359;SDS011;13311;51.386;0.016;2024-01-30T10:53:49;2.60;;;0.60;;
25359;SDS011;13311;51.386;0.016;2024-01-30T10:58:52;4.80;;;0.75;;
25359;SDS011;13311;51.386;0.016;2024-01-30T11:03:54;2.10;;;0.40;;
25359;SDS011;13311;51.386;0.016;2024-01-30T11:09:00;1.42;;;0.47;;
25359;SDS011;13311;51.386;0.016;2024-01-30T11:14:09;0.68;;;0.35;;
25359;SDS011;13311;51.386;0.016;2024-01-30T11:19:10;2.50;;;0.47;;
25359;SDS011;13311;51.386;0.016;2024-01-30T11:24:12;1.90;;;0.60;;
25359;SDS011;13311;51.386;0.016;2024-01-30T11:29:14;1.55;;;0.75;;
25359;SDS011;13311;51.386;0.016;2024-01-30T11:34:17;2.78;;;0.38;;
25359;SDS011;13311;51.386;0.016;2024-01-30T11:39:19;0.40;;;0.20;;
25359;SDS011;13311;51.386;0.016;2024-01-30T11:44:22;1.13;;;0.63;;
25359;SDS011;13311;51.386;0.016;2024-01-30T11:49:23;1.08;;;0.50;;
25359;SDS011;13311;51.386;0.016;2024-01-30T11:54:24;4.35;;;0.77;;
25359;SDS011;13311;51.386;0.016;2024-01-30T11:59:25;1.27;;;0.52;;
25359;SDS011;13311;51.386;0.016;2024-01-30T12:04:28;3.38;;;0.60;;
25359;SDS011;13311;51.386;0.016;2024-01-30T12:09:29;1.35;;;0.40;;
25359;SDS011;13311;51.386;0.016;2024-01-30T12:14:30;0.90;;;0.70;;
25359;SDS011;13311;51.386;0.016;2024-01-30T12:19:32;0.77;;;0.30;;
25359;SDS011;13311;51.386;0.016;2024-01-30T12:24:32;2.35;;;0.68;;
25359;SDS011;13311;51.386;0.016;2024-01-30T12:29:33;1.50;;;0.40;;
25359;SDS011;13311;51.386;0.016;2024-01-30T12:34:34;5.07;;;0.70;;
25359;SDS011;13311;51.386;0.016;2024-01-30T12:39:43;3.85;;;0.77;;
25359;SDS011;13311;51.386;0.016;2024-01-30T12:44:44;0.93;;;0.35;;
25359;SDS011;13311;51.386;0.016;2024-01-30T12:49:45;1.85;;;0.50;;
25359;SDS011;13311;51.386;0.016;2024-01-30T12:54:45;2.90;;;0.82;;
25359;SDS011;13311;51.386;0.016;2024-01-30T12:59:46;2.58;;;0.73;;
25359;SDS011;13311;51.386;0.016;2024-01-30T13:04:48;1.83;;;0.40;;
25359;SDS011;13311;51.386;0.016;2024-01-30T13:09:49;3.38;;;1.20;;
25359;SDS011;13311;51.386;0.016;2024-01-30T13:14:50;3.45;;;1.30;;
25359;SDS011;13311;51.386;0.016;2024-01-30T13:19:50;1.58;;;0.80;;
25359;SDS011;13311;51.386;0.016;2024-01-30T13:24:51;1.90;;;0.70;;
25359;SDS011;13311;51.386;0.016;2024-01-30T13:29:52;1.00;;;0.60;;
25359;SDS011;13311;51.386;0.016;2024-01-30T13:34:53;5.57;;;0.90;;
25359;SDS011;13311;51.386;0.016;2024-01-30T13:39:53;3.25;;;0.77;;
25359;SDS011;13311;51.386;0.016;2024-01-30T13:44:54;0.73;;;0.50;;
25359;SDS011;13311;51.386;0.016;2024-01-30T13:49:55;2.03;;;0.77;;
25359;SDS011;13311;51.386;0.016;2024-01-30T13:54:55;1.45;;;0.85;;
25359;SDS011;13311;51.386;0.016;2024-01-30T13:59:56;1.65;;;0.57;;
25359;SDS011;13311;51.386;0.016;2024-01-30T14:04:57;0.30;;;0.30;;
25359;SDS011;13311;51.386;0.016;2024-01-30T14:09:58;1.45;;;0.40;;
25359;SDS011;13311;51.386;0.016;2024-01-30T14:14:58;1.67;;;0.57;;
25359;SDS011;13311;51.386;0.016;2024-01-30T14:19:59;2.33;;;0.50;;
25359;SDS011;13311;51.386;0.016;2024-01-30T14:25:00;1.38;;;0.30;;
25359;SDS011;13311;51.386;0.016;2024-01-30T14:30:03;1.70;;;0.57;;
25359;SDS011;13311;51.386;0.016;2024-01-30T14:35:05;2.40;;;0.70;;
25359;SDS011;13311;51.386;0.016;2024-01-30T14:40:07;0.60;;;0.30;;
25359;SDS011;13311;51.386;0.016;2024-01-30T14:45:08;5.47;;;0.68;;
25359;SDS011;13311;51.386;0.016;2024-01-30T14:50:09;3.10;;;0.52;;
25359;SDS011;13311;51.386;0.016;2024-01-30T14:55:10;2.28;;;0.50;;
25359;SDS011;13311;51.386;0.016;2024-01-30T15:00:10;1.35;;;0.45;;
25359;SDS011;13311;51.386;0.016;2024-01-30T15:05:12;1.65;;;0.57;;
25359;SDS011;13311;51.386;0.016;2024-01-30T15:10:13;1.15;;;0.85;;
25359;SDS011;13311;51.386;0.016;2024-01-30T15:15:14;5.60;;;1.23;;
25359;SDS011;13311;51.386;0.016;2024-01-30T15:20:15;1.05;;;0.60;;
25359;SDS011;13311;51.386;0.016;2024-01-30T15:25:17;0.95;;;0.50;;
25359;SDS011;13311;51.386;0.016;2024-01-30T15:30:18;2.20;;;0.80;;
25359;SDS011;13311;51.386;0.016;2024-01-30T15:35:19;1.15;;;0.63;;
25359;SDS011;13311;51.386;0.016;2024-01-30T15:40:20;3.75;;;0.82;;
25359;SDS011;13311;51.386;0.016;2024-01-30T15:45:21;0.77;;;0.40;;
25359;SDS011;13311;51.386;0.016;2024-01-30T15:50:21;2.25;;;0.95;;
25359;SDS011;13311;51.386;0.016;2024-01-30T15:55:22;4.22;;;1.17;;
25359;SDS011;13311;51.386;0.016;2024-01-30T16:00:23;6.43;;;1.25;;
25359;SDS011;13311;51.386;0.016;2024-01-30T16:05:24;1.58;;;1.02;;
25359;SDS011;13311;51.386;0.016;2024-01-30T16:10:24;2.30;;;0.80;;
25359;SDS011;13311;51.386;0.016;2024-01-30T16:15:25;3.13;;;1.05;;
25359;SDS011;13311;51.386;0.016;2024-01-30T16:20:26;2.00;;;0.98;;
25359;SDS011;13311;51.386;0.016;2024-01-30T16:25:27;0.82;;;0.57;;
25359;SDS011;13311;51.386;0.016;2024-01-30T16:30:28;1.55;;;1.00;;
25359;SDS011;13311;51.386;0.016;2024-01-30T16:35:29;2.25;;;0.82;;
25359;SDS011;13311;51.386;0.016;2024-01-30T16:40:29;3.20;;;0.80;;
25359;SDS011;13311;51.386;0.016;2024-01-30T16:45:30;4.95;;;1.13;;
25359;SDS011;13311;51.386;0.016;2024-01-30T16:50:31;2.78;;;1.45;;
25359;SDS011;13311;51.386;0.016;2024-01-30T16:55:31;2.17;;;1.00;;
25359;SDS011;13311;51.386;0.016;2024-01-30T17:00:35;5.80;;;1.27;;
25359;SDS011;13311;51.386;0.016;2024-01-30T17:05:35;8.93;;;4.53;;
25359;SDS011;13311;51.386;0.016;2024-01-30T17:10:36;6.05;;;3.20;;
25359;SDS011;13311;51.386;0.016;2024-01-30T17:15:37;4.65;;;1.58;;
25359;SDS011;13311;51.386;0.016;2024-01-30T17:20:38;2.83;;;1.67;;
25359;SDS011;13311;51.386;0.016;2024-01-30T17:25:39;4.85;;;1.60;;
25359;SDS011;13311;51.386;0.016;2024-01-30T17:30:40;3.70;;;1.50;;
25359;SDS011;13311;51.386;0.016;2024-01-30T17:35:41;3.85;;;1.52;;
25359;SDS011;13311;51.386;0.016;2024-01-30T17:40:41;4.68;;;1.75;;
25359;SDS011;13311;51.386;0.016;2024-01-30T17:45:42;5.93;;;4.15;;
25359;SDS011;13311;51.386;0.016;2024-01-30T17:50:43;18.77;;;8.57;;
25359;SDS011;13311;51.386;0.016;2024-01-30T17:55:44;6.65;;;4.65;;
25359;SDS011;13311;51.386;0.016;2024-01-30T18:00:45;7.75;;;3.03;;
25359;SDS011;13311;51.386;0.016;2024-01-30T18:05:46;4.18;;;3.28;;
25359;SDS011;13311;51.386;0.016;2024-01-30T18:10:46;5.80;;;3.50;;
25359;SDS011;13311;51.386;0.016;2024-01-30T18:15:47;5.78;;;3.20;;
25359;SDS011;13311;51.386;0.016;2024-01-30T18:20:48;6.10;;;3.22;;
25359;SDS011;13311;51.386;0.016;2024-01-30T18:25:48;6.13;;;3.20;;
25359;SDS011;13311;51.386;0.016;2024-01-30T18:30:49;9.48;;;3.70;;
25359;SDS011;13311;51.386;0.016;2024-01-30T18:35:50;4.72;;;2.90;;
25359;SDS011;13311;51.386;0.016;2024-01-30T18:40:50;5.75;;;3.22;;
25359;SDS011;13311;51.386;0.016;2024-01-30T18:45:52;8.43;;;4.05;;
25359;SDS011;13311;51.386;0.016;2024-01-30T18:50:54;4.88;;;3.28;;
25359;SDS011;13311;51.386;0.016;2024-01-30T18:55:56;12.60;;;6.68;;
25359;SDS011;13311;51.386;0.016;2024-01-30T19:00:56;10.55;;;5.88;;
25359;SDS011;13311;51.386;0.016;2024-01-30T19:05:58;7.82;;;5.82;;
25359;SDS011;13311;51.386;0.016;2024-01-30T19:10:58;9.82;;;6.80;;
25359;SDS011;13311;51.386;0.016;2024-01-30T19:15:59;8.82;;;7.53;;
25359;SDS011;13311;51.386;0.016;2024-01-30T19:21:00;8.27;;;5.47;;
25359;SDS011;13311;51.386;0.016;2024-01-30T19:26:01;9.80;;;3.70;;
25359;SDS011;13311;51.386;0.016;2024-01-30T19:31:03;8.98;;;3.90;;
25359;SDS011;13311;51.386;0.016;2024-01-30T19:36:04;5.45;;;3.50;;
25359;SDS011;13311;51.386;0.016;2024-01-30T19:41:06;8.75;;;3.90;;
25359;SDS011;13311;51.386;0.016;2024-01-30T19:46:11;8.50;;;4.72;;
25359;SDS011;13311;51.386;0.016;2024-01-30T19:51:12;13.75;;;4.43;;
25359;SDS011;13311;51.386;0.016;2024-01-30T19:56:13;10.55;;;4.38;;
25359;SDS011;13311;51.386;0.016;2024-01-30T20:01:15;6.70;;;3.97;;
25359;SDS011;13311;51.386;0.016;2024-01-30T20:06:17;10.85;;;5.25;;
25359;SDS011;13311;51.386;0.016;2024-01-30T20:11:18;9.75;;;5.10;;
25359;SDS011;13311;51.386;0.016;2024-01-30T20:16:19;8.07;;;4.88;;
25359;SDS011;13311;51.386;0.016;2024-01-30T20:21:20;8.38;;;4.95;;
25359;SDS011;13311;51.386;0.016;2024-01-30T20:26:20;10.48;;;5.07;;
25359;SDS011;13311;51.386;0.016;2024-01-30T20:31:21;7.55;;;4.82;;
25359;SDS011;13311;51.386;0.016;2024-01-30T20:36:22;8.50;;;5.88;;
25359;SDS011;13311;51.386;0.016;2024-01-30T20:41:23;10.93;;;6.57;;
25359;SDS011;13311;51.386;0.016;2024-01-30T20:46:23;13.23;;;6.85;;
25359;SDS011;13311;51.386;0.016;2024-01-30T20:51:24;10.77;;;6.97;;
25359;SDS011;13311;51.386;0.016;2024-01-30T20:56:25;12.43;;;7.78;;
25359;SDS011;13311;51.386;0.016;2024-01-30T21:01:26;10.40;;;7.95;;
25359;SDS011;13311;51.386;0.016;2024-01-30T21:06:26;12.63;;;8.15;;
25359;SDS011;13311;51.386;0.016;2024-01-30T21:11:27;13.02;;;8.50;;
25359;SDS011;13311;51.386;0.016;2024-01-30T21:16:28;12.07;;;8.07;;
25359;SDS011;13311;51.386;0.016;2024-01-30T21:21:29;10.77;;;8.00;;
25359;SDS011;13311;51.386;0.016;2024-01-30T21:26:29;14.63;;;9.05;;
25359;SDS011;13311;51.386;0.016;2024-01-30T21:31:30;11.63;;;9.10;;
25359;SDS011;13311;51.386;0.016;2024-01-30T21:36:31;13.43;;;8.32;;
25359;SDS011;13311;51.386;0.016;2024-01-30T21:41:32;15.02;;;9.02;;
25359;SDS011;13311;51.386;0.016;2024-01-30T21:46:32;11.90;;;9.20;;
25359;SDS011;13311;51.386;0.016;2024-01-30T21:51:33;13.05;;;8.55;;
25359;SDS011;13311;51.386;0.016;2024-01-30T21:56:34;10.95;;;8.35;;
25359;SDS011;13311;51.386;0.016;2024-01-30T22:01:37;11.57;;;9.07;;
25359;SDS011;13311;51.386;0.016;2024-01-30T22:06:38;10.35;;;8.23;;
25359;SDS011;13311;51.386;0.016;2024-01-30T22:11:38;13.30;;;8.40;;
25359;SDS011;13311;51.386;0.016;2024-01-30T22:16:40;11.70;;;8.02;;
25359;SDS011;13311;51.386;0.016;2024-01-30T22:21:40;12.57;;;8.82;;
25359;SDS011;13311;51.386;0.016;2024-01-30T22:26:42;13.63;;;9.48;;
25359;SDS011;13311;51.386;0.016;2024-01-30T22:31:43;15.82;;;10.15;;
25359;SDS011;13311;51.386;0.016;2024-01-30T22:36:43;10.43;;;8.75;;
25359;SDS011;13311;51.386;0.016;2024-01-30T22:41:44;11.55;;;8.55;;
25359;SDS011;13311;51.386;0.016;2024-01-30T22:46:46;11.30;;;8.55;;
25359;SDS011;13311;51.386;0.016;2024-01-30T22:51:46;11.10;;;8.40;;
25359;SDS011;13311;51.386;0.016;2024-01-30T22:56:49;13.43;;;8.77;;
25359;SDS011;13311;51.386;0.016;2024-01-30T23:01:49;11.35;;;8.07;;
25359;SDS011;13311;51.386;0.016;2024-01-30T23:06:50;12.65;;;8.25;;
25359;SDS011;13311;51.386;0.016;2024-01-30T23:11:51;10.70;;;8.13;;
25359;SDS011;13311;51.386;0.016;2024-01-30T23:16:51;9.55;;;7.80;;
25359;SDS011;13311;51.386;0.016;2024-01-30T23:21:52;11.07;;;8.10;;
25359;SDS011;13311;51.386;0.016;2024-01-30T23:26:53;13.75;;;8.50;;
25359;SDS011;13311;51.386;0.016;2024-01-30T23:31:54;12.30;;;8.18;;
25359;SDS011;13311;51.386;0.016;2024-01-30T23:36:54;13.32;;;8.98;;
25359;SDS011;13311;51.386;0.016;2024-01-30T23:41:55;12.75;;;8.98;;
25359;SDS011;13311;51.386;0.016;2024-01-30T23:46:56;13.95;;;8.98;;
25359;SDS011;13311;51.386;0.016;2024-01-30T23:51:56;12.02;;;7.85;;
25359;SDS011;13311;51.386;0.016;2024-01-30T23:56:57;11.77;;;7.88;;
